Time;durP1;ratioP1;P1;durP2;ratioP2;P2;SDS_P1;SDS_P2;PMS_P1;PMS_P2;Temp;Humidity;BMP_temperature;BMP_pressure;BME280_temperature;BME280_humidity;BME280_pressure;Samples;Min_cycle;Max_cycle;Signal;HPM_P1;HPM_P2
2022/05/06 00:01:35;;;;;;;19.85;10.70;;;9.50;99.90;;;;;;5115097;28;20514;-78
2022/05/06 00:04:02;;;;;;;20.33;10.63;;;9.40;99.90;;;;;;5115384;28;20075;-78
2022/05/06 00:06:29;;;;;;;20.52;10.38;;;9.40;99.90;;;;;;5115215;28;20040;-77
2022/05/06 00:08:56;;;;;;;15.63;9.77;;;9.40;99.90;;;;;;5114407;28;20051;-78
2022/05/06 00:11:22;;;;;;;21.08;10.95;;;9.30;99.90;;;;;;5115245;28;20462;-77
2022/05/06 00:13:47;;;;;;;19.65;9.60;;;9.30;99.90;;;;;;5115097;28;20048;-76
2022/05/06 00:16:13;;;;;;;23.60;10.82;;;9.30;99.90;;;;;;5115017;28;20039;-78
2022/05/06 00:18:39;;;;;;;26.55;10.40;;;9.20;99.90;;;;;;5115025;28;20554;-76
2022/05/06 00:21:05;;;;;;;22.80;11.00;;;9.20;99.90;;;;;;5114932;28;20092;-77
2022/05/06 00:23:30;;;;;;;18.25;10.15;;;9.20;99.90;;;;;;5114763;28;20052;-79
2022/05/06 00:25:56;;;;;;;20.45;11.10;;;9.10;99.90;;;;;;5114923;28;20047;-76
2022/05/06 00:28:22;;;;;;;21.10;11.47;;;9.10;99.90;;;;;;5114996;28;20051;-78
2022/05/06 00:30:48;;;;;;;20.67;10.10;;;9.10;99.90;;;;;;5114642;28;20047;-76
2022/05/06 00:33:13;;;;;;;18.98;10.95;;;9.10;99.90;;;;;;5114478;28;20044;-77
2022/05/06 00:35:41;;;;;;;22.02;10.45;;;9.00;99.90;;;;;;5114785;28;20134;-77
2022/05/06 00:38:07;;;;;;;17.48;10.32;;;9.00;99.90;;;;;;5114617;28;20165;-78
2022/05/06 00:40:33;;;;;;;17.98;10.05;;;8.90;99.90;;;;;;5114485;28;20122;-77
2022/05/06 00:42:58;;;;;;;20.77;11.05;;;8.90;99.90;;;;;;5114594;28;20039;-76
2022/05/06 00:45:34;;;;;;;18.40;10.38;;;8.90;99.90;;;;;;5114494;28;20123;-77
2022/05/06 00:48:00;;;;;;;20.65;10.95;;;8.80;99.90;;;;;;5114614;28;20043;-77
2022/05/06 00:50:25;;;;;;;23.95;11.80;;;8.80;99.90;;;;;;5114398;28;20050;-77
2022/05/06 00:52:51;;;;;;;21.50;11.07;;;8.70;99.90;;;;;;5114516;28;20045;-77
2022/05/06 00:55:16;;;;;;;25.15;12.65;;;8.70;99.90;;;;;;5113255;28;20467;-76
2022/05/06 00:57:43;;;;;;;24.88;11.82;;;8.70;99.90;;;;;;5114194;28;20444;-77
2022/05/06 01:00:18;;;;;;;22.52;11.70;;;8.60;99.90;;;;;;5114369;28;20082;-78
2022/05/06 01:02:44;;;;;;;23.25;12.18;;;8.60;99.90;;;;;;5114346;28;20043;-75
2022/05/06 01:05:12;;;;;;;25.20;12.13;;;8.60;99.90;;;;;;5114287;28;20441;-75
2022/05/06 01:07:38;;;;;;;27.55;12.63;;;8.50;99.90;;;;;;5113671;28;20490;-77
2022/05/06 01:10:04;;;;;;;29.35;12.38;;;8.50;99.90;;;;;;5113055;28;20046;-78
2022/05/06 01:12:30;;;;;;;21.70;11.80;;;8.50;99.90;;;;;;5114261;28;20032;-78
2022/05/06 01:14:55;;;;;;;23.15;11.73;;;8.50;99.90;;;;;;5114399;28;20391;-78
2022/05/06 01:17:22;;;;;;;22.02;11.93;;;8.50;99.90;;;;;;5114111;28;20055;-79
2022/05/06 01:19:47;;;;;;;24.63;11.10;;;8.40;99.90;;;;;;5113376;28;20444;-78
2022/05/06 01:22:14;;;;;;;22.38;11.35;;;8.40;99.90;;;;;;5114141;28;20044;-77
2022/05/06 01:24:39;;;;;;;23.40;11.65;;;8.30;99.90;;;;;;5114218;28;20051;-77
2022/05/06 01:27:14;;;;;;;24.42;11.95;;;8.30;99.90;;;;;;5114133;28;20498;-77
2022/05/06 01:29:42;;;;;;;23.23;11.68;;;8.20;99.90;;;;;;5113943;28;20520;-78
2022/05/06 01:32:08;;;;;;;21.65;11.75;;;8.20;99.90;;;;;;5114129;28;20084;-77
2022/05/06 01:34:38;;;;;;;23.98;12.70;;;8.20;99.90;;;;;;5114052;28;20047;-77
2022/05/06 01:37:05;;;;;;;25.00;12.05;;;8.20;99.90;;;;;;5113982;28;20061;-79
2022/05/06 01:39:34;;;;;;;24.10;12.32;;;8.20;99.90;;;;;;5112896;28;20043;-78
2022/05/06 01:42:05;;;;;;;21.13;11.55;;;8.20;99.90;;;;;;5113983;28;20046;-77
2022/05/06 01:44:37;;;;;;;22.90;11.88;;;8.20;99.90;;;;;;5114121;28;20069;-79
2022/05/06 01:47:06;;;;;;;23.95;12.00;;;8.10;99.90;;;;;;5114294;28;20135;-76
2022/05/06 01:49:33;;;;;;;20.73;12.05;;;8.10;99.90;;;;;;5113903;28;20391;-76
2022/05/06 01:52:00;;;;;;;24.02;12.00;;;8.10;99.90;;;;;;5113886;28;20043;-78
2022/05/06 01:54:26;;;;;;;20.30;10.63;;;8.00;99.90;;;;;;5113921;28;20051;-78
2022/05/06 01:56:52;;;;;;;21.77;11.75;;;8.00;99.90;;;;;;5113653;28;20112;-78
2022/05/06 01:59:17;;;;;;;23.20;10.77;;;8.00;99.90;;;;;;5114307;28;20043;-75
2022/05/06 02:01:43;;;;;;;25.80;10.90;;;7.90;99.90;;;;;;5113800;28;20472;-78
2022/05/06 02:06:52;;;;;;;23.98;11.80;;;7.80;99.90;;;;;;5113869;28;20079;-77
2022/05/06 02:09:18;;;;;;;24.50;11.57;;;7.80;99.90;;;;;;5113777;28;20079;-76
2022/05/06 02:11:43;;;;;;;20.58;10.90;;;7.80;99.90;;;;;;5113785;28;20534;-77
2022/05/06 02:14:09;;;;;;;24.33;11.77;;;7.80;99.90;;;;;;5113850;28;20426;-79
2022/05/06 02:16:34;;;;;;;24.42;11.23;;;7.80;99.90;;;;;;5113765;28;20123;-79
2022/05/06 02:19:00;;;;;;;25.13;11.88;;;7.80;99.90;;;;;;5113674;28;20476;-78
2022/05/06 02:21:26;;;;;;;21.83;10.93;;;7.70;99.90;;;;;;5117413;28;20036;-77
2022/05/06 02:23:51;;;;;;;20.88;11.35;;;7.70;99.90;;;;;;5116447;28;20047;-80
2022/05/06 02:26:17;;;;;;;18.77;10.88;;;7.70;99.90;;;;;;5117373;28;20135;-79
2022/05/06 02:28:42;;;;;;;20.38;11.10;;;7.60;99.90;;;;;;5117432;28;20045;-78
2022/05/06 02:33:52;;;;;;;19.45;11.50;;;7.60;99.90;;;;;;5117245;28;20443;-77
2022/05/06 02:36:18;;;;;;;22.83;11.45;;;7.60;99.90;;;;;;5117069;28;20043;-78
2022/05/06 02:38:43;;;;;;;23.70;11.95;;;7.50;99.90;;;;;;5117057;28;20471;-77
2022/05/06 02:41:09;;;;;;;27.10;12.32;;;7.80;99.90;;;;;;5116999;28;20501;-77
2022/05/06 02:43:37;;;;;;;23.50;12.07;;;7.50;99.90;;;;;;5117125;27;20047;-76
2022/05/06 02:46:02;;;;;;;;;;;7.40;99.90;;;;;;5117268;28;20050;-75
2022/05/06 02:48:28;;;;;;;27.75;12.82;;;7.40;99.90;;;;;;5116948;28;19920;-78
2022/05/06 02:50:54;;;;;;;23.40;11.85;;;7.40;99.90;;;;;;5116672;28;20048;-76
2022/05/06 02:53:21;;;;;;;26.08;11.57;;;7.40;99.90;;;;;;5116826;28;20047;-79
2022/05/06 02:55:46;;;;;;;21.95;12.52;;;7.30;99.90;;;;;;5116799;28;20122;-76
2022/05/06 02:58:12;;;;;;;22.75;11.10;;;7.30;99.90;;;;;;5116582;28;20131;-77
2022/05/06 03:00:37;;;;;;;25.45;12.30;;;7.30;99.90;;;;;;5116803;28;20043;-77
2022/05/06 03:03:04;;;;;;;23.55;11.82;;;7.30;99.90;;;;;;5116609;28;20036;-77
2022/05/06 03:05:29;;;;;;;23.90;11.10;;;7.20;99.90;;;;;;5116282;28;20048;-79
2022/05/06 03:07:55;;;;;;;21.38;11.32;;;7.20;99.90;;;;;;5116756;28;20486;-79
2022/05/06 03:10:21;;;;;;;26.67;12.40;;;7.20;99.90;;;;;;5116704;28;20048;-77
2022/05/06 03:12:50;;;;;;;22.63;11.80;;;7.10;99.90;;;;;;5116539;28;20055;-77
2022/05/06 03:15:16;;;;;;;22.25;11.32;;;7.10;99.90;;;;;;5116489;28;20048;-79
2022/05/06 03:17:42;;;;;;;28.88;12.20;;;7.10;99.90;;;;;;5116201;28;20050;-77
2022/05/06 03:20:08;;;;;;;22.67;11.13;;;7.00;99.90;;;;;;5116274;28;20043;-77
2022/05/06 03:22:46;;;;;;;21.50;11.10;;;7.50;99.90;;;;;;5116664;27;20044;-78
2022/05/06 03:25:13;;;;;;;22.05;11.27;;;7.00;99.90;;;;;;5116281;28;20039;-77
2022/05/06 03:30:28;;;;;;;23.65;12.50;;;6.90;99.90;;;;;;5115815;28;20052;-75
2022/05/06 03:32:55;;;;;;;23.33;12.55;;;6.90;99.90;;;;;;5115998;28;20043;-78
2022/05/06 03:35:21;;;;;;;22.50;11.70;;;6.80;99.90;;;;;;5116396;28;20040;-76
2022/05/06 03:37:47;;;;;;;23.60;12.20;;;6.90;99.90;;;;;;5116261;28;20043;-79
2022/05/06 03:40:14;;;;;;;25.00;12.13;;;6.80;99.90;;;;;;5116231;28;20079;-79
2022/05/06 03:42:40;;;;;;;;;;;6.80;99.90;;;;;;5116467;28;20114;-77
2022/05/06 03:45:07;;;;;;;25.38;11.52;;;6.80;99.90;;;;;;5115886;28;19970;-77
2022/05/06 03:47:33;;;;;;;24.50;11.88;;;6.80;99.90;;;;;;5115615;28;20051;-79
2022/05/06 03:52:42;;;;;;;21.05;11.77;;;6.70;99.90;;;;;;5115515;28;20484;-78
2022/05/06 03:55:08;;;;;;;26.83;12.52;;;6.70;99.90;;;;;;5115515;28;20096;-80
2022/05/06 03:57:35;;;;;;;21.83;11.32;;;6.70;99.90;;;;;;5115330;28;20168;-77
2022/05/06 04:00:00;;;;;;;23.35;11.88;;;6.70;99.90;;;;;;5115496;28;20055;-76
2022/05/06 04:02:26;;;;;;;23.45;12.25;;;6.70;99.90;;;;;;5115535;28;20036;-78
2022/05/06 04:04:51;;;;;;;22.25;11.93;;;6.70;99.90;;;;;;5115219;28;20039;-76
2022/05/06 04:07:17;;;;;;;27.83;12.15;;;6.70;99.90;;;;;;5115367;28;20134;-76
2022/05/06 04:09:42;;;;;;;25.30;12.88;;;6.70;99.90;;;;;;5115398;28;20039;-78
2022/05/06 04:12:10;;;;;;;22.05;12.13;;;6.70;99.90;;;;;;5114905;28;20043;-77
2022/05/06 04:14:35;;;;;;;;;;;6.70;99.90;;;;;;5115761;28;20070;-77
2022/05/06 04:17:03;;;;;;;23.60;11.80;;;6.70;99.90;;;;;;5115189;28;19920;-76
2022/05/06 04:19:29;;;;;;;27.20;12.88;;;6.70;99.90;;;;;;5115187;28;20044;-77
2022/05/06 04:24:39;;;;;;;22.63;12.13;;;6.80;99.90;;;;;;5115167;28;20048;-79
2022/05/06 04:27:05;;;;;;;23.52;12.00;;;6.80;99.90;;;;;;5114934;28;20040;-77
2022/05/06 04:29:31;;;;;;;26.48;12.80;;;6.90;99.90;;;;;;5114965;28;20108;-79
2022/05/06 04:31:56;;;;;;;23.23;13.45;;;6.90;99.90;;;;;;5115215;28;20048;-77
2022/05/06 04:34:22;;;;;;;26.10;12.45;;;7.00;99.90;;;;;;5114901;28;20043;-78
2022/05/06 04:36:48;;;;;;;28.67;12.50;;;7.00;99.90;;;;;;5115158;28;20044;-79
2022/05/06 04:39:13;;;;;;;24.75;12.15;;;7.10;99.90;;;;;;5114755;28;20081;-77
2022/05/06 04:41:39;;;;;;;23.70;12.60;;;7.10;99.90;;;;;;5114352;28;20044;-76
2022/05/06 04:44:04;;;;;;;25.55;13.20;;;7.20;99.90;;;;;;5114767;28;20055;-79
2022/05/06 04:46:30;;;;;;;24.17;12.95;;;7.20;99.90;;;;;;5131446;27;20043;-77
2022/05/06 04:48:55;;;;;;;20.33;11.73;;;7.20;99.90;;;;;;5114969;28;20055;-77
2022/05/06 04:51:21;;;;;;;25.65;12.48;;;7.30;99.90;;;;;;5114506;28;20039;-78
2022/05/06 04:53:47;;;;;;;25.88;13.73;;;7.30;99.90;;;;;;5114543;28;20051;-80
2022/05/06 04:56:13;;;;;;;25.70;12.40;;;7.30;99.90;;;;;;5114263;28;20035;-77
2022/05/06 04:58:38;;;;;;;32.95;14.43;;;7.40;99.90;;;;;;5114422;28;20044;-77
2022/05/06 05:01:04;;;;;;;22.60;12.57;;;7.40;99.90;;;;;;5114960;28;20396;-78
2022/05/06 05:03:29;;;;;;;22.50;12.65;;;7.50;99.90;;;;;;5114427;28;20518;-78
2022/05/06 05:05:55;;;;;;;22.90;13.18;;;7.50;99.90;;;;;;5114361;28;20047;-77
2022/05/06 05:08:20;;;;;;;27.38;13.70;;;7.60;99.90;;;;;;5114374;28;20113;-78
2022/05/06 05:10:46;;;;;;;23.25;12.27;;;7.60;99.90;;;;;;5114339;28;20066;-77
2022/05/06 05:13:12;;;;;;;22.52;12.35;;;7.70;99.90;;;;;;5114083;28;20110;-78
2022/05/06 05:15:37;;;;;;;22.52;12.30;;;7.70;99.90;;;;;;5114779;28;20039;-78
2022/05/06 05:18:03;;;;;;;28.58;12.98;;;7.80;99.90;;;;;;5114543;28;20101;-78
2022/05/06 05:20:29;;;;;;;25.50;11.93;;;7.80;99.90;;;;;;5114298;28;20180;-78
2022/05/06 05:22:55;;;;;;;24.88;12.65;;;7.90;99.90;;;;;;5114195;28;20040;-78
2022/05/06 05:25:20;;;;;;;25.27;12.65;;;8.00;99.90;;;;;;5114206;28;20058;-77
2022/05/06 05:27:46;;;;;;;26.45;13.10;;;8.10;99.90;;;;;;5114065;28;20044;-76
2022/05/06 05:30:12;;;;;;;29.27;14.35;;;8.20;99.90;;;;;;5113995;28;20364;-77
2022/05/06 05:32:39;;;;;;;25.83;14.27;;;8.30;99.90;;;;;;5114192;28;20079;-80
2022/05/06 05:35:05;;;;;;;28.63;14.27;;;8.30;99.90;;;;;;5114153;28;20044;-77
2022/05/06 05:37:31;;;;;;;25.63;14.05;;;8.40;99.90;;;;;;5113779;28;20051;-76
2022/05/06 05:39:56;;;;;;;26.85;14.50;;;8.50;99.90;;;;;;5114013;28;20043;-76
2022/05/06 05:42:23;;;;;;;26.60;14.73;;;8.60;99.90;;;;;;5113798;28;20126;-76
2022/05/06 05:50:18;;;;;;;29.42;15.55;;;8.90;99.90;;;;;;5113858;28;20419;-75
2022/05/06 05:52:44;;;;;;;28.63;15.85;;;8.90;99.90;;;;;;5113491;28;20047;-73
2022/05/06 05:55:10;;;;;;;26.80;15.00;;;9.00;99.90;;;;;;5117192;28;20498;-75
2022/05/06 05:57:36;;;;;;;41.45;16.98;;;9.10;99.90;;;;;;5117859;28;20047;-75
2022/05/06 06:00:03;;;;;;;29.05;15.02;;;9.10;99.90;;;;;;5118208;28;20075;-74
2022/05/06 06:02:29;;;;;;;;;;;9.30;99.90;;;;;;5118426;28;20437;-76
2022/05/06 06:04:56;;;;;;;28.40;13.88;;;9.40;99.90;;;;;;5117932;28;19970;-74
2022/05/06 06:07:21;;;;;;;27.65;15.30;;;9.60;99.90;;;;;;5117778;27;20048;-77
2022/05/06 06:09:47;;;;;;;29.67;15.15;;;9.80;99.90;;;;;;5117573;28;20453;-76
2022/05/06 06:12:12;;;;;;;30.00;15.60;;;10.00;99.90;;;;;;5117993;28;20040;-76
2022/05/06 06:14:38;;;;;;;28.75;15.75;;;10.40;99.90;;;;;;5118381;28;20047;-76
2022/05/06 06:17:04;;;;;;;33.88;15.57;;;10.30;99.90;;;;;;5118107;28;20088;-78
2022/05/06 06:19:29;;;;;;;31.42;15.52;;;10.50;99.90;;;;;;5117792;28;20094;-78
2022/05/06 06:21:55;;;;;;;32.40;15.95;;;10.70;99.90;;;;;;5117450;28;20035;-76
2022/05/06 06:24:20;;;;;;;31.38;15.73;;;10.90;99.90;;;;;;5117399;28;20133;-75
2022/05/06 06:26:46;;;;;;;35.17;15.75;;;11.10;99.90;;;;;;5117381;28;20071;-75
2022/05/06 06:29:11;;;;;;;35.53;16.95;;;11.40;99.90;;;;;;5117198;28;20039;-76
2022/05/06 06:31:38;;;;;;;36.55;16.60;;;11.60;99.90;;;;;;5117376;28;20043;-75
2022/05/06 06:34:04;;;;;;;32.55;17.48;;;11.80;99.90;;;;;;5117155;28;20387;-74
2022/05/06 06:36:29;;;;;;;35.92;17.20;;;12.00;99.90;;;;;;5116955;28;20044;-75
2022/05/06 06:38:55;;;;;;;31.90;15.60;;;12.20;99.90;;;;;;5116873;28;20129;-73
2022/05/06 06:41:21;;;;;;;32.75;16.30;;;12.40;99.90;;;;;;5117471;28;20058;-75
2022/05/06 06:43:47;;;;;;;31.10;16.58;;;12.50;99.90;;;;;;5116951;28;20046;-74
2022/05/06 06:46:13;;;;;;;33.55;15.77;;;12.70;99.90;;;;;;5116938;28;20051;-74
2022/05/06 06:48:40;;;;;;;36.17;18.05;;;12.90;99.90;;;;;;5116889;28;20048;-77
2022/05/06 06:51:05;;;;;;;31.42;17.35;;;13.10;99.90;;;;;;5116718;28;20088;-76
2022/05/06 06:53:31;;;;;;;37.50;19.45;;;13.30;99.90;;;;;;5116747;28;20039;-76
2022/05/06 06:55:57;;;;;;;32.47;18.75;;;13.40;99.90;;;;;;5116864;28;20154;-75
2022/05/06 06:58:23;;;;;;;32.08;17.83;;;13.40;99.90;;;;;;5117043;28;20047;-75
2022/05/06 07:00:48;;;;;;;30.55;17.27;;;13.60;99.90;;;;;;5116543;28;20497;-75
2022/05/06 07:03:14;;;;;;;34.05;17.95;;;13.70;99.90;;;;;;5116284;28;20062;-75
2022/05/06 07:13:53;;;;;;;33.15;18.05;;;14.40;99.90;;;;;;5116379;28;20403;-76
2022/05/06 07:16:18;;;;;;;33.33;17.93;;;14.60;99.90;;;;;;5116285;28;20048;-77
2022/05/06 07:18:44;;;;;;;32.63;17.35;;;14.80;99.90;;;;;;5132733;27;20043;-78
2022/05/06 07:21:09;;;;;;;34.60;17.83;;;14.80;99.90;;;;;;5116298;28;20372;-77
2022/05/06 07:23:35;;;;;;;32.40;17.30;;;14.90;99.90;;;;;;5116257;28;20483;-76
2022/05/06 07:26:00;;;;;;;32.55;18.10;;;15.00;99.90;;;;;;5116152;28;20051;-77
2022/05/06 07:28:26;;;;;;;29.13;17.93;;;15.10;99.90;;;;;;5116144;28;20047;-77
2022/05/06 07:30:51;;;;;;;39.60;18.67;;;15.20;99.90;;;;;;5116070;28;20039;-78
2022/05/06 07:33:17;;;;;;;33.97;18.20;;;15.30;99.90;;;;;;5115304;28;20032;-77
2022/05/06 07:35:42;;;;;;;35.22;18.88;;;15.40;99.90;;;;;;5114779;28;20411;-75
2022/05/06 07:38:08;;;;;;;36.47;19.20;;;15.50;99.90;;;;;;5115676;28;20112;-76
2022/05/06 07:40:34;;;;;;;32.92;18.15;;;15.60;99.90;;;;;;5115878;28;20040;-75
2022/05/06 07:43:00;;;;;;;29.23;16.13;;;15.60;99.90;;;;;;5116157;28;20047;-77
2022/05/06 07:45:25;;;;;;;26.88;14.73;;;15.70;99.90;;;;;;5116078;28;20390;-77
2022/05/06 07:47:51;;;;;;;23.30;12.95;;;15.70;99.90;;;;;;5115746;28;20044;-76
2022/05/06 07:50:17;;;;;;;23.75;14.43;;;15.80;99.90;;;;;;5115741;28;20403;-77
2022/05/06 07:52:42;;;;;;;24.93;14.03;;;15.90;99.90;;;;;;5115677;28;20083;-77
2022/05/06 07:55:10;;;;;;;22.47;13.50;;;15.90;99.90;;;;;;5115663;28;20040;-77
2022/05/06 07:57:36;;;;;;;23.45;13.85;;;16.00;99.90;;;;;;5115584;28;20097;-79
2022/05/06 08:00:03;;;;;;;23.20;13.57;;;16.10;99.90;;;;;;5115582;28;20047;-76
2022/05/06 08:05:13;;;;;;;21.35;12.68;;;16.20;99.90;;;;;;5115745;28;20083;-75
2022/05/06 08:07:38;;;;;;;24.93;14.77;;;16.10;99.90;;;;;;5114632;28;20071;-77
2022/05/06 08:10:06;;;;;;;22.70;13.33;;;16.00;99.90;;;;;;5115375;28;20040;-78
2022/05/06 08:12:32;;;;;;;25.27;14.60;;;16.00;99.90;;;;;;5115025;28;20044;-77
2022/05/06 08:14:58;;;;;;;24.90;13.93;;;16.00;99.90;;;;;;5115275;28;20087;-76
2022/05/06 08:17:24;;;;;;;25.83;15.17;;;16.00;99.90;;;;;;5114193;28;20490;-78
2022/05/06 08:19:49;;;;;;;26.05;15.15;;;16.10;99.90;;;;;;5114090;28;20040;-77
2022/05/06 08:22:15;;;;;;;26.03;14.67;;;16.10;99.90;;;;;;5115205;28;20380;-76
2022/05/06 08:24:40;;;;;;;24.85;14.43;;;16.00;99.90;;;;;;5115113;28;20043;-76
2022/05/06 08:27:06;;;;;;;26.40;13.93;;;16.10;99.90;;;;;;5114960;28;20047;-78
2022/05/06 08:29:33;;;;;;;22.93;13.43;;;16.10;99.90;;;;;;5115107;28;20130;-76
2022/05/06 08:31:58;;;;;;;26.00;14.20;;;16.10;99.90;;;;;;5115454;28;20081;-77
2022/05/06 08:34:24;;;;;;;25.53;14.47;;;16.20;99.90;;;;;;5113559;28;20104;-74
2022/05/06 08:36:50;;;;;;;20.63;13.07;;;16.30;99.90;;;;;;5115855;28;20039;-75
2022/05/06 08:39:16;;;;;;;22.60;13.38;;;16.30;99.90;;;;;;5114800;28;20108;-73
2022/05/06 08:41:41;;;;;;;18.73;11.70;;;16.30;99.90;;;;;;5114713;28;20118;-75
2022/05/06 08:52:34;;;;;;;17.77;12.00;;;16.10;99.90;;;;;;5113249;28;20059;-77
2022/05/06 08:55:01;;;;;;;20.98;12.48;;;16.20;99.90;;;;;;5114454;28;20042;-75
2022/05/06 08:57:27;;;;;;;20.85;13.68;;;16.30;99.90;;;;;;5114428;28;20047;-74
2022/05/06 08:59:53;;;;;;;21.90;13.63;;;16.20;99.90;;;;;;5114746;28;20096;-75
2022/05/06 09:02:20;;;;;;;21.13;11.85;;;16.20;99.90;;;;;;5114343;28;20047;-75
2022/05/06 09:04:45;;;;;;;18.45;11.68;;;16.30;99.90;;;;;;5114589;28;20054;-74
2022/05/06 09:07:20;;;;;;;19.27;12.43;;;16.40;99.90;;;;;;5113992;28;20040;-75
2022/05/06 09:10:11;;;;;;;21.15;11.82;;;16.50;99.90;;;;;;5114935;28;20066;-75
2022/05/06 09:12:46;;;;;;;22.42;13.27;;;16.60;99.90;;;;;;5113943;28;20043;-76
2022/05/06 09:18:00;;;;;;;;;;;16.80;99.90;;;;;;5114529;28;20055;-76
2022/05/06 09:20:27;;;;;;;19.75;11.50;;;17.00;99.90;;;;;;5114122;28;19920;-74
2022/05/06 09:22:53;;;;;;;;;;;17.00;99.90;;;;;;5114998;28;20198;-77
2022/05/06 09:25:51;;;;;;;17.70;11.23;;;17.20;99.90;;;;;;5114337;28;20287;-75
2022/05/06 09:28:30;;;;;;;19.15;11.68;;;17.20;99.90;;;;;;5114592;28;20048;-75
2022/05/06 09:31:06;;;;;;;20.00;10.63;;;17.20;99.90;;;;;;5118360;28;20050;-75
2022/05/06 09:33:42;;;;;;;15.43;9.85;;;17.40;99.90;;;;;;5118299;28;20044;-75
2022/05/06 09:36:30;;;;;;;19.23;11.38;;;17.50;99.90;;;;;;5118492;28;20046;-73
2022/05/06 09:39:03;;;;;;;18.17;9.27;;;17.50;99.90;;;;;;5118273;28;20390;-75
2022/05/06 09:41:29;;;;;;;16.65;10.60;;;17.50;99.90;;;;;;5118203;28;20040;-73
2022/05/06 09:43:59;;;;;;;15.37;9.30;;;17.50;99.90;;;;;;5118339;28;20092;-75
2022/05/06 09:46:25;;;;;;;14.90;8.93;;;17.70;99.90;;;;;;5117906;28;20524;-75
2022/05/06 09:48:56;;;;;;;12.77;8.43;;;17.70;99.90;;;;;;5118097;28;20079;-74
2022/05/06 09:51:29;;;;;;;13.93;8.32;;;17.80;99.90;;;;;;5117893;28;20112;-75
2022/05/06 09:53:57;;;;;;;13.15;8.52;;;17.90;99.90;;;;;;5117879;28;20043;-75
2022/05/06 09:56:24;;;;;;;13.60;8.38;;;18.00;99.90;;;;;;5118055;28;20039;-74
2022/05/06 09:58:53;;;;;;;16.38;8.98;;;18.00;99.90;;;;;;5117876;27;20051;-75
2022/05/06 10:01:20;;;;;;;11.93;8.02;;;18.10;99.90;;;;;;5117434;28;20403;-75
2022/05/06 10:03:46;;;;;;;13.18;7.60;;;18.20;99.90;;;;;;5117420;28;20082;-77
2022/05/06 10:06:12;;;;;;;10.70;7.57;;;18.40;99.90;;;;;;5117459;28;20075;-75
2022/05/06 10:08:44;;;;;;;13.13;8.17;;;18.40;99.90;;;;;;5116371;28;20035;-76
2022/05/06 10:11:14;;;;;;;12.55;7.78;;;18.50;99.90;;;;;;5116400;28;20086;-76
2022/05/06 10:13:43;;;;;;;11.48;6.07;;;18.50;99.90;;;;;;5117279;28;20101;-76
2022/05/06 10:16:10;;;;;;;9.20;5.88;;;18.60;99.90;;;;;;5117388;28;20048;-74
2022/05/06 10:18:39;;;;;;;;;;;18.70;99.90;;;;;;5117886;28;20108;-74
2022/05/06 10:21:09;;;;;;;12.82;7.60;;;18.80;99.90;;;;;;5116987;28;19920;-75
2022/05/06 10:23:55;;;;;;;12.07;6.63;;;18.90;99.90;;;;;;5117513;28;20046;-74
2022/05/06 10:26:42;;;;;;;9.38;6.00;;;19.10;99.90;;;;;;5117364;28;20048;-75
2022/05/06 10:32:54;;;;;;;10.80;6.85;;;19.40;99.90;;;;;;5117241;28;20044;-73
2022/05/06 10:35:39;;;;;;;10.65;6.07;;;19.60;99.90;;;;;;5116865;28;20044;-73
2022/05/06 10:38:17;;;;;;;12.55;6.28;;;19.60;99.90;;;;;;5117116;28;20051;-75
2022/05/06 10:40:57;;;;;;;9.93;6.25;;;19.80;99.90;;;;;;5115958;28;20044;-74
2022/05/06 10:43:55;;;;;;;13.10;7.00;;;19.90;99.90;;;;;;5116980;28;20096;-76
2022/05/06 10:46:32;;;;;;;12.82;7.57;;;20.00;99.90;;;;;;5071704;28;20415;-76
2022/05/06 10:49:41;;;;;;;11.60;6.95;;;20.20;99.90;;;;;;5116852;28;20096;-75
2022/05/06 10:52:16;;;;;;;12.38;6.75;;;20.20;99.90;;;;;;5108402;28;20056;-75
2022/05/06 10:54:49;;;;;;;9.63;6.25;;;20.40;99.90;;;;;;5116760;28;20082;-74
2022/05/06 10:57:25;;;;;;;7.90;5.28;;;20.40;99.90;;;;;;5116836;28;20121;-75
2022/05/06 11:00:02;;;;;;;10.98;6.07;;;20.20;99.90;;;;;;5116703;28;20395;-74
2022/05/06 11:02:29;;;;;;;;;;;20.30;99.90;;;;;;5117035;28;20517;-76
2022/05/06 11:04:57;;;;;;;7.78;4.22;;;20.50;99.90;;;;;;5115641;28;20012;-76
2022/05/06 11:07:24;;;;;;;7.53;4.18;;;20.60;99.90;;;;;;5116558;28;20047;-76
2022/05/06 11:09:51;;;;;;;5.25;3.65;;;20.80;99.90;;;;;;5116400;28;20059;-76
2022/05/06 11:12:40;;;;;;;6.22;3.70;;;20.80;99.90;;;;;;5116331;28;20051;-76
2022/05/06 11:15:09;;;;;;;5.45;3.15;;;20.80;99.90;;;;;;5116411;28;20368;-75
2022/05/06 11:17:35;;;;;;;3.65;2.70;;;20.80;99.90;;;;;;5116329;28;20043;-76
2022/05/06 11:20:31;;;;;;;5.47;2.75;;;20.90;99.90;;;;;;5115997;28;20472;-76
2022/05/06 11:23:05;;;;;;;4.55;2.70;;;21.00;99.90;;;;;;5116262;28;20080;-74
2022/05/06 11:25:33;;;;;;;3.20;2.58;;;21.10;99.90;;;;;;5116060;28;20040;-76
2022/05/06 11:28:03;;;;;;;3.33;2.50;;;21.20;99.90;;;;;;5116242;28;20047;-74
2022/05/06 11:30:30;;;;;;;4.78;2.20;;;21.30;99.90;;;;;;5116469;28;20051;-74
2022/05/06 11:33:00;;;;;;;2.92;2.42;;;21.30;99.90;;;;;;5114244;28;20027;-74
2022/05/06 11:35:32;;;;;;;3.80;2.20;;;21.20;99.90;;;;;;5115373;28;20043;-77
2022/05/06 11:37:58;;;;;;;2.60;1.80;;;21.40;99.90;;;;;;5115584;28;20050;-80
2022/05/06 11:42:57;;;;;;;3.75;2.05;;;21.50;99.90;;;;;;5115916;28;20039;-76
2022/05/06 11:48:11;;;;;;;3.95;2.70;;;21.60;99.90;;;;;;5115392;28;20055;-78
2022/05/06 11:50:38;;;;;;;2.88;2.03;;;21.70;99.90;;;;;;5114429;28;20475;-76
2022/05/06 11:53:09;;;;;;;2.30;1.90;;;21.50;99.40;;;;;;5115063;28;20040;-79
2022/05/06 11:55:41;;;;;;;2.03;1.58;;;21.50;99.90;;;;;;5115294;28;20127;-76
2022/05/06 11:58:10;;;;;;;8.10;2.45;;;21.60;99.60;;;;;;5115311;28;20043;-77
2022/05/06 12:00:36;;;;;;;4.60;2.40;;;21.60;99.40;;;;;;5115115;28;20437;-79
2022/05/06 12:03:04;;;;;;;2.78;2.00;;;21.60;99.80;;;;;;5114892;28;20155;-77
2022/05/06 12:05:30;;;;;;;4.53;1.88;;;21.70;98.80;;;;;;5115170;28;20043;-78
2022/05/06 12:07:55;;;;;;;3.38;2.22;;;21.90;99.70;;;;;;5115237;27;20043;-78
2022/05/06 12:10:25;;;;;;;3.83;1.93;;;21.90;99.30;;;;;;5114015;28;20540;-78
2022/05/06 12:12:57;;;;;;;1.85;1.30;;;22.00;98.70;;;;;;5114925;28;20051;-80
2022/05/06 12:15:30;;;;;;;2.78;1.60;;;22.00;96.70;;;;;;5114096;28;20059;-76
2022/05/06 12:18:01;;;;;;;3.67;1.70;;;22.10;96.90;;;;;;5115019;28;20058;-78
2022/05/06 12:20:35;;;;;;;3.25;1.70;;;22.10;96.70;;;;;;5114934;28;20552;-75
2022/05/06 12:23:03;;;;;;;4.18;1.95;;;22.20;96.60;;;;;;5114922;28;20119;-74
2022/05/06 12:25:28;;;;;;;3.50;1.35;;;22.30;97.30;;;;;;5115055;28;20048;-80
2022/05/06 12:28:10;;;;;;;2.60;1.83;;;22.30;97.10;;;;;;5114899;28;20446;-76
2022/05/06 12:30:37;;;;;;;3.72;2.58;;;22.30;95.40;;;;;;5115008;28;20050;-79
2022/05/06 12:33:13;;;;;;;4.07;2.70;;;22.30;96.40;;;;;;5114810;28;20036;-77
2022/05/06 12:36:02;;;;;;;3.00;1.90;;;22.40;97.10;;;;;;5114955;27;20135;-79
2022/05/06 12:38:39;;;;;;;5.22;2.25;;;22.40;95.20;;;;;;5115367;28;20085;-76
2022/05/06 12:41:21;;;;;;;3.05;1.95;;;22.30;95.50;;;;;;5114672;28;20039;-78
2022/05/06 12:43:51;;;;;;;4.53;2.45;;;22.40;96.10;;;;;;5114837;28;20051;-77
2022/05/06 12:46:26;;;;;;;3.08;2.30;;;22.40;95.10;;;;;;5114656;28;20126;-76
2022/05/06 12:51:53;;;;;;;4.32;1.52;;;22.40;93.60;;;;;;5051409;28;20045;-76
2022/05/06 12:54:18;;;;;;;3.40;2.00;;;22.60;93.40;;;;;;5101421;28;20495;-77
2022/05/06 12:56:44;;;;;;;4.47;1.80;;;22.70;93.60;;;;;;5114610;28;20043;-78
2022/05/06 12:59:10;;;;;;;2.80;1.93;;;22.50;93.10;;;;;;5114672;28;20044;-77
2022/05/06 13:01:36;;;;;;;6.27;2.20;;;22.70;93.30;;;;;;5114007;28;20036;-76
2022/05/06 13:04:02;;;;;;;3.33;2.30;;;22.70;92.70;;;;;;5113864;28;20092;-76
2022/05/06 13:06:31;;;;;;;5.55;2.38;;;22.50;93.10;;;;;;5114448;28;20047;-78
2022/05/06 13:08:56;;;;;;;2.92;1.83;;;22.60;93.80;;;;;;5114697;28;20044;-77
2022/05/06 13:11:22;;;;;;;3.67;1.70;;;22.70;94.20;;;;;;5114229;28;20050;-78
2022/05/06 13:13:47;;;;;;;3.77;1.60;;;22.80;93.50;;;;;;5114134;28;20055;-76
2022/05/06 13:16:13;;;;;;;3.90;1.40;;;22.80;93.10;;;;;;5113861;28;20054;-77
2022/05/06 13:18:39;;;;;;;3.10;1.00;;;23.00;91.90;;;;;;5114282;28;20051;-78
2022/05/06 13:21:05;;;;;;;;;;;22.80;91.50;;;;;;5114616;28;20047;-76
2022/05/06 13:23:31;;;;;;;2.50;1.25;;;22.70;90.40;;;;;;5114129;28;19927;-77
2022/05/06 13:25:57;;;;;;;1.50;1.00;;;22.70;90.80;;;;;;5113945;28;20052;-77
2022/05/06 13:28:23;;;;;;;2.20;1.23;;;22.70;91.00;;;;;;5114200;28;20058;-76
2022/05/06 13:30:48;;;;;;;2.57;1.10;;;22.60;91.00;;;;;;5114051;28;20061;-74
2022/05/06 13:33:14;;;;;;;4.23;1.33;;;22.70;91.60;;;;;;5113911;28;20159;-79
2022/05/06 13:35:39;;;;;;;2.90;1.33;;;22.80;91.70;;;;;;5113997;28;20376;-79